sensor_id;sensor_type;location;lat;lon;timestamp;pressure;altitude;pressure_sealevel;temperature;humidity
71384;BME280;61466;52.166;5.004;2022-12-05T00:00:49;101985.91;;;4.18;74.47
71384;BME280;61466;52.166;5.004;2022-12-05T00:03:14;101991.38;;;4.16;74.39
71384;BME280;61466;52.166;5.004;2022-12-05T00:05:40;101980.19;;;4.21;74.36
71384;BME280;61466;52.166;5.004;2022-12-05T00:08:05;101985.50;;;4.21;74.27
71384;BME280;61466;52.166;5.004;2022-12-05T00:10:31;101980.59;;;4.18;74.22
71384;BME280;61466;52.166;5.004;2022-12-05T00:12:56;101989.41;;;4.25;74.23
71384;BME280;61466;52.166;5.004;2022-12-05T00:15:22;101988.00;;;4.29;74.20
71384;BME280;61466;52.166;5.004;2022-12-05T00:17:47;101982.69;;;4.29;73.97
71384;BME280;61466;52.166;5.004;2022-12-05T00:20:13;101984.56;;;4.35;74.09
71384;BME280;61466;52.166;5.004;2022-12-05T00:22:38;101986.78;;;4.31;74.01
71384;BME280;61466;52.166;5.004;2022-12-05T00:25:05;101982.50;;;4.30;74.06
71384;BME280;61466;52.166;5.004;2022-12-05T00:27:31;101994.91;;;4.30;73.97
71384;BME280;61466;52.166;5.004;2022-12-05T00:29:56;101984.75;;;4.34;74.10
71384;BME280;61466;52.166;5.004;2022-12-05T00:32:22;101984.75;;;4.34;74.04
71384;BME280;61466;52.166;5.004;2022-12-05T00:34:47;101980.91;;;4.36;73.89
71384;BME280;61466;52.166;5.004;2022-12-05T00:37:12;101985.81;;;4.39;74.11
71384;BME280;61466;52.166;5.004;2022-12-05T00:39:37;101985.44;;;4.42;73.97
71384;BME280;61466;52.166;5.004;2022-12-05T00:42:03;101989.72;;;4.43;73.77
71384;BME280;61466;52.166;5.004;2022-12-05T00:44:28;101996.66;;;4.44;73.90
71384;BME280;61466;52.166;5.004;2022-12-05T00:46:54;101988.88;;;4.43;74.02
71384;BME280;61466;52.166;5.004;2022-12-05T00:49:19;101983.38;;;4.38;74.22
71384;BME280;61466;52.166;5.004;2022-12-05T00:51:44;101989.72;;;4.43;74.06
71384;BME280;61466;52.166;5.004;2022-12-05T00:54:13;101990.53;;;4.44;73.99
71384;BME280;61466;52.166;5.004;2022-12-05T00:56:39;101996.47;;;4.46;74.00
71384;BME280;61466;52.166;5.004;2022-12-05T00:59:05;101990.75;;;4.49;74.14
71384;BME280;61466;52.166;5.004;2022-12-05T01:01:37;101995.25;;;4.48;74.05
71384;BME280;61466;52.166;5.004;2022-12-05T01:04:06;101986.28;;;4.49;74.36
71384;BME280;61466;52.166;5.004;2022-12-05T01:06:32;101987.28;;;4.48;74.24
71384;BME280;61466;52.166;5.004;2022-12-05T01:08:58;101969.31;;;4.37;74.26
71384;BME280;61466;52.166;5.004;2022-12-05T01:11:24;101985.91;;;4.53;74.23
71384;BME280;61466;52.166;5.004;2022-12-05T01:13:50;101989.16;;;4.55;74.18
71384;BME280;61466;52.166;5.004;2022-12-05T01:16:18;101986.69;;;4.53;74.48
71384;BME280;61466;52.166;5.004;2022-12-05T01:18:44;101987.72;;;4.52;74.76
71384;BME280;61466;52.166;5.004;2022-12-05T01:21:10;101983.88;;;4.55;74.56
71384;BME280;61466;52.166;5.004;2022-12-05T01:23:36;101988.53;;;4.53;74.41
71384;BME280;61466;52.166;5.004;2022-12-05T01:26:05;101982.00;;;4.48;75.08
71384;BME280;61466;52.166;5.004;2022-12-05T01:28:31;101977.91;;;4.46;74.92
71384;BME280;61466;52.166;5.004;2022-12-05T01:30:57;101984.47;;;4.50;74.82
71384;BME280;61466;52.166;5.004;2022-12-05T01:33:22;101984.25;;;4.51;75.10
71384;BME280;61466;52.166;5.004;2022-12-05T01:35:47;101980.59;;;4.53;74.91
71384;BME280;61466;52.166;5.004;2022-12-05T01:38:14;101984.25;;;4.51;75.04
71384;BME280;61466;52.166;5.004;2022-12-05T01:40:39;101991.38;;;4.51;74.87
71384;BME280;61466;52.166;5.004;2022-12-05T01:43:15;101995.84;;;4.44;75.93
71384;BME280;61466;52.166;5.004;2022-12-05T01:45:44;101989.94;;;4.48;75.42
71384;BME280;61466;52.166;5.004;2022-12-05T01:48:17;101988.91;;;4.49;75.52
71384;BME280;61466;52.166;5.004;2022-12-05T01:50:44;101988.91;;;4.49;75.23
71384;BME280;61466;52.166;5.004;2022-12-05T01:53:10;101995.47;;;4.54;75.38
71384;BME280;61466;52.166;5.004;2022-12-05T01:55:35;101987.72;;;4.52;75.54
71384;BME280;61466;52.166;5.004;2022-12-05T01:58:04;101995.47;;;4.54;75.59
71384;BME280;61466;52.166;5.004;2022-12-05T02:00:30;102000.53;;;4.48;76.29
71384;BME280;61466;52.166;5.004;2022-12-05T02:02:59;101999.72;;;4.48;76.05
71384;BME280;61466;52.166;5.004;2022-12-05T02:05:29;101992.41;;;4.50;75.99
71384;BME280;61466;52.166;5.004;2022-12-05T02:07:57;101988.53;;;4.53;75.66
71384;BME280;61466;52.166;5.004;2022-12-05T02:10:22;101990.16;;;4.54;75.67
71384;BME280;61466;52.166;5.004;2022-12-05T02:12:51;101989.78;;;4.57;75.73
71384;BME280;61466;52.166;5.004;2022-12-05T02:15:29;101996.53;;;4.59;75.72
71384;BME280;61466;52.166;5.004;2022-12-05T02:18:11;101996.53;;;4.59;76.14
71384;BME280;61466;52.166;5.004;2022-12-05T02:20:47;101989.59;;;4.58;75.84
71384;BME280;61466;52.166;5.004;2022-12-05T02:26:32;101995.09;;;4.57;76.86
71384;BME280;61466;52.166;5.004;2022-12-05T02:29:38;101989.38;;;4.60;76.32
71384;BME280;61466;52.166;5.004;2022-12-05T02:40:33;101989.59;;;4.58;76.75
71384;BME280;61466;52.166;5.004;2022-12-05T02:45:35;101987.75;;;4.59;76.98
71384;BME280;61466;52.166;5.004;2022-12-05T02:48:02;101988.56;;;4.59;77.07
71384;BME280;61466;52.166;5.004;2022-12-05T02:50:35;101996.34;;;4.61;76.90
71384;BME280;61466;52.166;5.004;2022-12-05T02:53:13;101985.75;;;4.61;77.08
71384;BME280;61466;52.166;5.004;2022-12-05T02:55:40;101989.41;;;4.66;76.88
71384;BME280;61466;52.166;5.004;2022-12-05T02:58:15;101992.28;;;4.65;77.51
71384;BME280;61466;52.166;5.004;2022-12-05T03:00:44;101991.88;;;4.68;76.74
71384;BME280;61466;52.166;5.004;2022-12-05T03:03:15;101993.06;;;4.59;77.45
71384;BME280;61466;52.166;5.004;2022-12-05T03:06:04;101997.13;;;4.55;78.32
71384;BME280;61466;52.166;5.004;2022-12-05T03:08:36;101986.13;;;4.58;77.67
71384;BME280;61466;52.166;5.004;2022-12-05T03:11:04;101988.56;;;4.59;77.58
71384;BME280;61466;52.166;5.004;2022-12-05T03:13:37;101986.16;;;4.64;77.21
71384;BME280;61466;52.166;5.004;2022-12-05T03:16:10;101987.59;;;4.67;77.32
71384;BME280;61466;52.166;5.004;2022-12-05T03:18:40;101996.38;;;4.67;77.21
71384;BME280;61466;52.166;5.004;2022-12-05T03:21:19;101992.66;;;4.62;78.16
71384;BME280;61466;52.166;5.004;2022-12-05T03:23:50;101997.16;;;4.61;77.84
71384;BME280;61466;52.166;5.004;2022-12-05T03:31:56;101993.06;;;4.59;78.17
71384;BME280;61466;52.166;5.004;2022-12-05T03:34:41;102005.53;;;4.65;77.75
71384;BME280;61466;52.166;5.004;2022-12-05T03:37:16;101996.75;;;4.64;78.19
71384;BME280;61466;52.166;5.004;2022-12-05T03:39:47;101995.97;;;4.70;77.38
71384;BME280;61466;52.166;5.004;2022-12-05T03:42:19;102008.19;;;4.65;77.95
71384;BME280;61466;52.166;5.004;2022-12-05T03:44:57;102012.69;;;4.71;77.59
71384;BME280;61466;52.166;5.004;2022-12-05T03:47:35;102013.13;;;4.75;77.64
71384;BME280;61466;52.166;5.004;2022-12-05T03:50:10;102012.75;;;4.78;77.34
71384;BME280;61466;52.166;5.004;2022-12-05T03:52:44;102009.69;;;4.81;77.36
71384;BME280;61466;52.166;5.004;2022-12-05T03:55:12;102007.84;;;4.81;77.11
71384;BME280;61466;52.166;5.004;2022-12-05T03:57:57;102015.59;;;4.83;77.31
71384;BME280;61466;52.166;5.004;2022-12-05T04:00:26;102013.75;;;4.83;77.15
71384;BME280;61466;52.166;5.004;2022-12-05T04:02:58;102016.84;;;4.87;77.17
71384;BME280;61466;52.166;5.004;2022-12-05T04:05:37;102018.69;;;4.86;77.18
71384;BME280;61466;52.166;5.004;2022-12-05T04:08:14;102020.13;;;4.89;77.03
71384;BME280;61466;52.166;5.004;2022-12-05T04:10:42;102020.94;;;4.89;77.24
71384;BME280;61466;52.166;5.004;2022-12-05T04:13:20;102017.28;;;4.90;77.20
71384;BME280;61466;52.166;5.004;2022-12-05T04:15:55;102020.53;;;4.92;76.96
71384;BME280;61466;52.166;5.004;2022-12-05T04:18:47;102012.56;;;4.92;77.32
71384;BME280;61466;52.166;5.004;2022-12-05T04:21:16;102022.19;;;4.93;77.26
71384;BME280;61466;52.166;5.004;2022-12-05T04:24:01;102025.03;;;4.99;76.98
71384;BME280;61466;52.166;5.004;2022-12-05T04:26:47;102015.66;;;4.96;76.87
71384;BME280;61466;52.166;5.004;2022-12-05T04:29:27;102024.22;;;4.98;77.25
71384;BME280;61466;52.166;5.004;2022-12-05T04:31:57;102027.69;;;4.99;77.11
71384;BME280;61466;52.166;5.004;2022-12-05T04:34:26;102020.97;;;5.03;77.12
71384;BME280;61466;52.166;5.004;2022-12-05T04:36:57;102021.59;;;5.05;76.80
71384;BME280;61466;52.166;5.004;2022-12-05T04:39:50;102018.94;;;5.05;76.92
71384;BME280;61466;52.166;5.004;2022-12-05T04:42:20;102008.97;;;5.07;76.88
71384;BME280;61466;52.166;5.004;2022-12-05T04:44:50;102014.69;;;5.04;77.39
71384;BME280;61466;52.166;5.004;2022-12-05T04:47:18;102008.97;;;5.07;77.04
71384;BME280;61466;52.166;5.004;2022-12-05T04:49:46;102006.72;;;5.04;76.92
71384;BME280;61466;52.166;5.004;2022-12-05T04:52:13;102017.94;;;5.06;77.01
71384;BME280;61466;52.166;5.004;2022-12-05T04:54:53;102012.63;;;4.99;77.46
71384;BME280;61466;52.166;5.004;2022-12-05T04:58:10;102018.56;;;5.08;77.08
71384;BME280;61466;52.166;5.004;2022-12-05T05:00:10;102021.00;;;5.09;77.32
71384;BME280;61466;52.166;5.004;2022-12-05T05:05:10;102018.97;;;5.11;77.16
71384;BME280;61466;52.166;5.004;2022-12-05T05:07:52;102016.91;;;5.07;77.58
71384;BME280;61466;52.166;5.004;2022-12-05T05:10:26;102010.41;;;5.09;77.41
71384;BME280;61466;52.166;5.004;2022-12-05T05:12:55;102015.31;;;5.06;78.47
71384;BME280;61466;52.166;5.004;2022-12-05T05:15:20;102011.81;;;5.05;77.77
71384;BME280;61466;52.166;5.004;2022-12-05T05:17:46;102024.25;;;5.05;78.21
71384;BME280;61466;52.166;5.004;2022-12-05T05:20:11;102012.84;;;5.11;77.79
71384;BME280;61466;52.166;5.004;2022-12-05T05:22:53;102032.03;;;5.13;77.54
71384;BME280;61466;52.166;5.004;2022-12-05T05:25:19;102021.44;;;5.13;77.80
71384;BME280;61466;52.166;5.004;2022-12-05T05:27:50;102024.50;;;5.10;78.88
71384;BME280;61466;52.166;5.004;2022-12-05T05:30:16;102021.44;;;5.13;78.60
71384;BME280;61466;52.166;5.004;2022-12-05T05:32:42;102021.44;;;5.13;78.24
71384;BME280;61466;52.166;5.004;2022-12-05T05:35:07;102022.06;;;5.15;78.10
71384;BME280;61466;52.166;5.004;2022-12-05T05:37:33;102024.28;;;5.18;77.88
71384;BME280;61466;52.166;5.004;2022-12-05T05:39:58;102024.91;;;5.20;77.85
71384;BME280;61466;52.166;5.004;2022-12-05T05:42:23;102021.25;;;5.21;77.77
71384;BME280;61466;52.166;5.004;2022-12-05T05:44:49;102022.09;;;5.28;77.91
71384;BME280;61466;52.166;5.004;2022-12-05T05:47:14;102033.50;;;5.29;78.03
71384;BME280;61466;52.166;5.004;2022-12-05T05:49:39;102030.47;;;5.25;78.14
71384;BME280;61466;52.166;5.004;2022-12-05T05:52:05;102021.09;;;5.29;77.87
71384;BME280;61466;52.166;5.004;2022-12-05T05:54:30;102025.97;;;5.32;77.94
71384;BME280;61466;52.166;5.004;2022-12-05T05:56:55;102027.63;;;5.33;78.24
71384;BME280;61466;52.166;5.004;2022-12-05T05:59:20;102027.81;;;5.32;78.33
71384;BME280;61466;52.166;5.004;2022-12-05T06:01:46;102028.63;;;5.32;78.17
71384;BME280;61466;52.166;5.004;2022-12-05T06:04:11;102032.34;;;5.38;78.25
71384;BME280;61466;52.166;5.004;2022-12-05T06:06:36;102038.03;;;5.42;78.18
71384;BME280;61466;52.166;5.004;2022-12-05T06:09:05;102026.00;;;5.39;78.36
71384;BME280;61466;52.166;5.004;2022-12-05T06:11:31;102027.22;;;5.43;78.23
71384;BME280;61466;52.166;5.004;2022-12-05T06:13:58;102026.41;;;5.43;77.93
71384;BME280;61466;52.166;5.004;2022-12-05T06:16:25;102020.31;;;5.42;78.27
71384;BME280;61466;52.166;5.004;2022-12-05T06:18:51;102022.53;;;5.45;78.21
71384;BME280;61466;52.166;5.004;2022-12-05T06:21:16;102026.44;;;5.49;78.23
71384;BME280;61466;52.166;5.004;2022-12-05T06:23:42;102024.41;;;5.51;77.84
71384;BME280;61466;52.166;5.004;2022-12-05T06:26:10;102024.19;;;5.53;78.28
71384;BME280;61466;52.166;5.004;2022-12-05T06:28:36;102032.38;;;5.58;78.24
71384;BME280;61466;52.166;5.004;2022-12-05T06:31:18;102030.94;;;5.56;78.18
71384;BME280;61466;52.166;5.004;2022-12-05T06:33:44;102026.44;;;5.56;78.05
71384;BME280;61466;52.166;5.004;2022-12-05T06:36:13;102032.56;;;5.57;77.98
71384;BME280;61466;52.166;5.004;2022-12-05T06:38:39;102029.91;;;5.57;78.00
71384;BME280;61466;52.166;5.004;2022-12-05T06:41:05;102029.28;;;5.61;77.89
71384;BME280;61466;52.166;5.004;2022-12-05T06:43:31;102029.91;;;5.63;78.12
71384;BME280;61466;52.166;5.004;2022-12-05T06:45:57;102031.34;;;5.59;78.47
71384;BME280;61466;52.166;5.004;2022-12-05T06:48:23;102037.69;;;5.65;78.16
71384;BME280;61466;52.166;5.004;2022-12-05T06:50:50;102048.09;;;5.66;78.04
71384;BME280;61466;52.166;5.004;2022-12-05T06:53:16;102046.69;;;5.64;78.29
71384;BME280;61466;52.166;5.004;2022-12-05T06:55:41;102041.16;;;5.65;77.97
71384;BME280;61466;52.166;5.004;2022-12-05T06:58:07;102041.38;;;5.70;77.85
71384;BME280;61466;52.166;5.004;2022-12-05T07:00:32;102044.44;;;5.74;77.82
71384;BME280;61466;52.166;5.004;2022-12-05T07:03:16;102050.16;;;5.71;78.16
71384;BME280;61466;52.166;5.004;2022-12-05T07:05:42;102049.75;;;5.81;77.88
71384;BME280;61466;52.166;5.004;2022-12-05T07:08:08;102053.25;;;5.81;77.58
71384;BME280;61466;52.166;5.004;2022-12-05T07:10:34;102059.97;;;5.84;78.06
71384;BME280;61466;52.166;5.004;2022-12-05T07:13:00;102056.69;;;5.82;77.61
71384;BME280;61466;52.166;5.004;2022-12-05T07:15:26;102055.91;;;5.81;77.62
71384;BME280;61466;52.166;5.004;2022-12-05T07:17:51;102054.66;;;5.84;77.75
71384;BME280;61466;52.166;5.004;2022-12-05T07:20:16;102057.94;;;5.86;77.93
71384;BME280;61466;52.166;5.004;2022-12-05T07:22:42;102062.63;;;5.90;77.71
71384;BME280;61466;52.166;5.004;2022-12-05T07:25:08;102055.47;;;5.91;77.48
71384;BME280;61466;52.166;5.004;2022-12-05T07:27:33;102056.91;;;5.93;77.46
71384;BME280;61466;52.166;5.004;2022-12-05T07:29:59;102062.84;;;5.95;77.86
71384;BME280;61466;52.166;5.004;2022-12-05T07:32:24;102061.66;;;5.98;77.59
71384;BME280;61466;52.166;5.004;2022-12-05T07:34:50;102066.56;;;6.01;77.05
71384;BME280;61466;52.166;5.004;2022-12-05T07:37:15;102073.91;;;5.99;77.43
71384;BME280;61466;52.166;5.004;2022-12-05T07:39:41;102078.81;;;6.02;77.37
71384;BME280;61466;52.166;5.004;2022-12-05T07:42:06;102072.06;;;6.00;77.33
71384;BME280;61466;52.166;5.004;2022-12-05T07:44:32;102072.69;;;5.95;77.57
71384;BME280;61466;52.166;5.004;2022-12-05T07:46:58;102080.44;;;6.03;77.37
71384;BME280;61466;52.166;5.004;2022-12-05T07:49:23;102083.09;;;6.03;77.42
71384;BME280;61466;52.166;5.004;2022-12-05T07:51:49;102086.38;;;6.05;77.46
71384;BME280;61466;52.166;5.004;2022-12-05T07:54:14;102083.72;;;6.05;77.41
71384;BME280;61466;52.166;5.004;2022-12-05T07:56:39;102085.56;;;6.05;77.11
71384;BME280;61466;52.166;5.004;2022-12-05T07:59:05;102084.09;;;6.02;77.58
71384;BME280;61466;52.166;5.004;2022-12-05T08:01:30;102089.84;;;6.06;77.48
71384;BME280;61466;52.166;5.004;2022-12-05T08:03:57;102090.66;;;6.06;77.38
71384;BME280;61466;52.166;5.004;2022-12-05T08:06:25;102088.84;;;6.07;77.23
71384;BME280;61466;52.166;5.004;2022-12-05T08:08:52;102093.94;;;6.08;77.12
71384;BME280;61466;52.166;5.004;2022-12-05T08:11:21;102092.50;;;6.06;77.18
71384;BME280;61466;52.166;5.004;2022-12-05T08:13:47;102090.25;;;6.09;77.08
71384;BME280;61466;52.166;5.004;2022-12-05T08:16:16;102094.16;;;6.07;77.42
71384;BME280;61466;52.166;5.004;2022-12-05T08:18:42;102091.88;;;6.04;77.49
71384;BME280;61466;52.166;5.004;2022-12-05T08:21:10;102094.75;;;6.02;77.33
71384;BME280;61466;52.166;5.004;2022-12-05T08:23:37;102091.50;;;6.07;77.25
71384;BME280;61466;52.166;5.004;2022-12-05T08:26:13;102098.63;;;6.06;77.22
71384;BME280;61466;52.166;5.004;2022-12-05T08:28:39;102100.69;;;6.11;77.16
71384;BME280;61466;52.166;5.004;2022-12-05T08:31:06;102102.75;;;6.09;76.96
71384;BME280;61466;52.166;5.004;2022-12-05T08:33:32;102091.88;;;6.10;77.10
71384;BME280;61466;52.166;5.004;2022-12-05T08:36:00;102100.91;;;6.16;76.93
71384;BME280;61466;52.166;5.004;2022-12-05T08:38:26;102105.41;;;6.15;76.79
71384;BME280;61466;52.166;5.004;2022-12-05T08:40:52;102097.63;;;6.14;77.05
71384;BME280;61466;52.166;5.004;2022-12-05T08:43:18;102106.41;;;6.14;77.05
71384;BME280;61466;52.166;5.004;2022-12-05T08:45:52;102106.81;;;6.11;77.06
71384;BME280;61466;52.166;5.004;2022-12-05T08:48:19;102105.78;;;6.12;77.26
71384;BME280;61466;52.166;5.004;2022-12-05T08:50:45;102114.78;;;6.18;77.24
71384;BME280;61466;52.166;5.004;2022-12-05T08:53:11;102113.56;;;6.21;77.28
71384;BME280;61466;52.166;5.004;2022-12-05T08:55:38;102112.56;;;6.22;77.40
71384;BME280;61466;52.166;5.004;2022-12-05T08:58:03;102120.72;;;6.27;76.75
71384;BME280;61466;52.166;5.004;2022-12-05T09:00:29;102118.69;;;6.29;77.02
71384;BME280;61466;52.166;5.004;2022-12-05T09:02:54;102121.72;;;6.26;77.40
71384;BME280;61466;52.166;5.004;2022-12-05T09:05:21;102127.66;;;6.28;76.88
71384;BME280;61466;52.166;5.004;2022-12-05T09:07:47;102130.53;;;6.26;76.95
71384;BME280;61466;52.166;5.004;2022-12-05T09:10:12;102129.72;;;6.32;77.11
71384;BME280;61466;52.166;5.004;2022-12-05T09:12:38;102127.88;;;6.33;76.89
71384;BME280;61466;52.166;5.004;2022-12-05T09:15:06;102128.88;;;6.39;76.68
71384;BME280;61466;52.166;5.004;2022-12-05T09:17:31;102133.00;;;6.41;76.71
71384;BME280;61466;52.166;5.004;2022-12-05T09:19:57;102128.31;;;6.43;76.86
71384;BME280;61466;52.166;5.004;2022-12-05T09:22:22;102140.97;;;6.41;76.94
71384;BME280;61466;52.166;5.004;2022-12-05T09:24:49;102137.28;;;6.42;76.45
71384;BME280;61466;52.166;5.004;2022-12-05T09:27:14;102141.97;;;6.47;76.69
71384;BME280;61466;52.166;5.004;2022-12-05T09:29:39;102112.31;;;6.36;76.48
71384;BME280;61466;52.166;5.004;2022-12-05T09:32:05;102136.84;;;6.45;76.54
71384;BME280;61466;52.166;5.004;2022-12-05T09:34:31;102140.53;;;6.51;76.76
71384;BME280;61466;52.166;5.004;2022-12-05T09:36:57;102141.16;;;6.46;76.35
71384;BME280;61466;52.166;5.004;2022-12-05T09:39:24;102151.38;;;6.49;76.37
71384;BME280;61466;52.166;5.004;2022-12-05T09:45:24;102149.75;;;6.48;76.64
71384;BME280;61466;52.166;5.004;2022-12-05T09:48:04;102148.94;;;6.48;76.86
71384;BME280;61466;52.166;5.004;2022-12-05T09:50:36;102155.25;;;6.53;76.36
71384;BME280;61466;52.166;5.004;2022-12-05T09:53:38;102152.59;;;6.53;76.34
71384;BME280;61466;52.166;5.004;2022-12-05T09:59:08;102151.59;;;6.54;76.32
71384;BME280;61466;52.166;5.004;2022-12-05T10:02:15;102156.69;;;6.49;76.64
71384;BME280;61466;52.166;5.004;2022-12-05T10:08:07;102157.72;;;6.55;76.41
71384;BME280;61466;52.166;5.004;2022-12-05T10:13:13;102153.84;;;6.57;76.14
71384;BME280;61466;52.166;5.004;2022-12-05T10:21:17;102155.25;;;6.60;76.64
71384;BME280;61466;52.166;5.004;2022-12-05T10:23:55;102155.25;;;6.60;76.96
71384;BME280;61466;52.166;5.004;2022-12-05T10:26:25;102156.72;;;6.63;76.49
71384;BME280;61466;52.166;5.004;2022-12-05T10:31:43;102151.19;;;6.57;76.59
71384;BME280;61466;52.166;5.004;2022-12-05T10:34:37;102158.16;;;6.59;76.84
71384;BME280;61466;52.166;5.004;2022-12-05T10:37:20;102150.56;;;6.55;76.61
71384;BME280;61466;52.166;5.004;2022-12-05T10:39:46;102160.19;;;6.63;76.25
71384;BME280;61466;52.166;5.004;2022-12-05T10:42:28;102147.09;;;6.62;76.70
71384;BME280;61466;52.166;5.004;2022-12-05T10:44:59;102154.44;;;6.66;76.52
71384;BME280;61466;52.166;5.004;2022-12-05T10:47:27;102154.25;;;6.68;76.76
71384;BME280;61466;52.166;5.004;2022-12-05T10:49:55;102145.47;;;6.67;76.30
71384;BME280;61466;52.166;5.004;2022-12-05T10:52:23;102151.59;;;6.68;76.44
71384;BME280;61466;52.166;5.004;2022-12-05T10:54:54;102138.28;;;6.68;76.45
71384;BME280;61466;52.166;5.004;2022-12-05T10:57:22;102141.97;;;6.67;76.50
71384;BME280;61466;52.166;5.004;2022-12-05T10:59:49;102140.53;;;6.71;76.23
71384;BME280;61466;52.166;5.004;2022-12-05T11:02:21;102140.53;;;6.71;76.68
71384;BME280;61466;52.166;5.004;2022-12-05T11:04:48;102136.44;;;6.68;76.33
71384;BME280;61466;52.166;5.004;2022-12-05T11:09:55;102140.31;;;6.79;76.40
71384;BME280;61466;52.166;5.004;2022-12-05T11:12:39;102132.56;;;6.78;76.37
71384;BME280;61466;52.166;5.004;2022-12-05T11:15:19;102138.88;;;6.83;76.14
71384;BME280;61466;52.166;5.004;2022-12-05T11:17:51;102136.44;;;6.88;76.05
71384;BME280;61466;52.166;5.004;2022-12-05T11:22:54;102136.81;;;6.85;76.09
71384;BME280;61466;52.166;5.004;2022-12-05T11:25:34;102135.59;;;6.88;75.69
71384;BME280;61466;52.166;5.004;2022-12-05T11:28:23;102135.59;;;6.88;75.99
71384;BME280;61466;52.166;5.004;2022-12-05T11:33:24;102130.28;;;6.88;75.67
71384;BME280;61466;52.166;5.004;2022-12-05T11:35:52;102132.72;;;6.89;75.91
71384;BME280;61466;52.166;5.004;2022-12-05T11:38:21;102128.84;;;6.85;76.05
71384;BME280;61466;52.166;5.004;2022-12-05T11:46:30;102130.69;;;6.91;76.01
71384;BME280;61466;52.166;5.004;2022-12-05T11:57:37;102138.03;;;6.96;76.28
71384;BME280;61466;52.166;5.004;2022-12-05T12:08:24;102137.63;;;6.92;76.03
71384;BME280;61466;52.166;5.004;2022-12-05T12:16:28;102134.38;;;6.97;75.91
71384;BME280;61466;52.166;5.004;2022-12-05T12:29:59;102125.31;;;7.05;76.20
71384;BME280;61466;52.166;5.004;2022-12-05T12:40:56;102113.22;;;7.09;76.11
71384;BME280;61466;52.166;5.004;2022-12-05T12:52:12;102103.63;;;7.08;75.78
71384;BME280;61466;52.166;5.004;2022-12-05T12:57:30;102114.25;;;7.14;75.33
71384;BME280;61466;52.166;5.004;2022-12-05T13:02:51;102110.53;;;7.22;75.76
71384;BME280;61466;52.166;5.004;2022-12-05T13:05:20;102105.19;;;7.22;75.51
71384;BME280;61466;52.166;5.004;2022-12-05T13:07:53;102101.53;;;7.23;75.55
71384;BME280;61466;52.166;5.004;2022-12-05T13:10:29;102106.41;;;7.26;75.48
71384;BME280;61466;52.166;5.004;2022-12-05T13:12:58;102106.22;;;7.28;75.33
71384;BME280;61466;52.166;5.004;2022-12-05T13:15:38;102107.66;;;7.24;75.62
71384;BME280;61466;52.166;5.004;2022-12-05T13:18:15;102107.66;;;7.24;75.66
71384;BME280;61466;52.166;5.004;2022-12-05T13:20:47;102106.63;;;7.25;75.39
71384;BME280;61466;52.166;5.004;2022-12-05T13:23:15;102102.16;;;7.18;75.27
71384;BME280;61466;52.166;5.004;2022-12-05T13:25:43;102110.53;;;7.22;75.54
71384;BME280;61466;52.166;5.004;2022-12-05T13:28:36;102108.50;;;7.17;75.78
71384;BME280;61466;52.166;5.004;2022-12-05T13:31:09;102106.66;;;7.18;75.51
71384;BME280;61466;52.166;5.004;2022-12-05T13:36:11;102114.22;;;7.21;75.48
71384;BME280;61466;52.166;5.004;2022-12-05T13:39:01;102103.81;;;7.13;75.90
71384;BME280;61466;52.166;5.004;2022-12-05T13:41:56;102106.91;;;7.10;75.93
71384;BME280;61466;52.166;5.004;2022-12-05T13:45:07;102102.78;;;7.07;75.49
71384;BME280;61466;52.166;5.004;2022-12-05T13:50:35;102108.13;;;7.07;75.60
71384;BME280;61466;52.166;5.004;2022-12-05T13:56:06;102109.13;;;7.13;75.77
71384;BME280;61466;52.166;5.004;2022-12-05T13:58:56;102110.34;;;7.17;75.79
71384;BME280;61466;52.166;5.004;2022-12-05T14:17:41;102112.59;;;7.13;76.08
71384;BME280;61466;52.166;5.004;2022-12-05T14:23:00;102119.16;;;7.11;76.30
71384;BME280;61466;52.166;5.004;2022-12-05T14:25:51;102120.00;;;7.05;76.13
71384;BME280;61466;52.166;5.004;2022-12-05T14:28:36;102111.22;;;7.04;76.03
71384;BME280;61466;52.166;5.004;2022-12-05T14:33:42;102117.53;;;7.03;76.31
71384;BME280;61466;52.166;5.004;2022-12-05T14:36:14;102119.19;;;7.04;76.17
71384;BME280;61466;52.166;5.004;2022-12-05T14:38:41;102121.44;;;7.01;76.43
71384;BME280;61466;52.166;5.004;2022-12-05T14:41:14;102121.25;;;6.95;76.90
71384;BME280;61466;52.166;5.004;2022-12-05T14:43:40;102115.31;;;6.93;76.92
71384;BME280;61466;52.166;5.004;2022-12-05T14:46:15;102122.69;;;6.91;76.71
71384;BME280;61466;52.166;5.004;2022-12-05T14:48:43;102122.09;;;6.89;76.47
71384;BME280;61466;52.166;5.004;2022-12-05T14:56:29;102122.50;;;6.93;76.71
71384;BME280;61466;52.166;5.004;2022-12-05T14:59:28;102135.16;;;6.97;76.81
71384;BME280;61466;52.166;5.004;2022-12-05T15:02:00;102140.06;;;7.01;76.87
71384;BME280;61466;52.166;5.004;2022-12-05T15:06:59;102148.03;;;7.01;77.02
71384;BME280;61466;52.166;5.004;2022-12-05T15:09:52;102145.81;;;6.97;77.30
71384;BME280;61466;52.166;5.004;2022-12-05T15:12:52;102149.09;;;6.93;77.16
71384;BME280;61466;52.166;5.004;2022-12-05T15:18:33;102146.22;;;6.94;76.73
71384;BME280;61466;52.166;5.004;2022-12-05T15:21:09;102143.16;;;6.97;76.92
71384;BME280;61466;52.166;5.004;2022-12-05T15:23:42;102159.72;;;7.00;77.03
71384;BME280;61466;52.166;5.004;2022-12-05T15:29:03;102155.41;;;6.98;77.31
71384;BME280;61466;52.166;5.004;2022-12-05T15:31:31;102151.94;;;6.98;76.96
71384;BME280;61466;52.166;5.004;2022-12-05T15:34:03;102155.22;;;7.00;77.07
71384;BME280;61466;52.166;5.004;2022-12-05T15:36:34;102148.06;;;6.94;77.01
71384;BME280;61466;52.166;5.004;2022-12-05T15:39:03;102155.63;;;6.90;77.43
71384;BME280;61466;52.166;5.004;2022-12-05T15:41:28;102159.97;;;6.85;77.68
71384;BME280;61466;52.166;5.004;2022-12-05T15:43:55;102160.16;;;6.83;77.72
71384;BME280;61466;52.166;5.004;2022-12-05T15:46:23;102156.47;;;6.91;77.10
71384;BME280;61466;52.166;5.004;2022-12-05T15:48:53;102155.66;;;6.97;77.05
71384;BME280;61466;52.166;5.004;2022-12-05T15:51:21;102165.06;;;7.00;77.44
71384;BME280;61466;52.166;5.004;2022-12-05T15:53:59;102159.72;;;7.00;77.16